sensor_id;sensor_type;location;lat;lon;timestamp;pressure;altitude;pressure_sealevel;temperature;humidity
71638;BME280;59485;43.542;-5.676;2023-08-30T00:00:44;66794.28;;;0.00;nan
71638;BME280;59485;43.542;-5.676;2023-08-30T00:03:11;66811.06;;;0.00;nan
71638;BME280;59485;43.542;-5.676;2023-08-30T00:05:40;66797.31;;;0.00;nan
71638;BME280;59485;43.542;-5.676;2023-08-30T00:08:07;66808.00;;;0.00;nan
71638;BME280;59485;43.542;-5.676;2023-08-30T00:10:32;66800.38;;;0.00;nan
71638;BME280;59485;43.542;-5.676;2023-08-30T00:12:58;66830.91;;;0.00;nan
71638;BME280;59485;43.542;-5.676;2023-08-30T00:15:23;66817.16;;;0.00;nan
71638;BME280;59485;43.542;-5.676;2023-08-30T00:17:49;66814.09;;;0.00;nan
71638;BME280;59485;43.542;-5.676;2023-08-30T00:20:17;66806.47;;;0.00;nan
71638;BME280;59485;43.542;-5.676;2023-08-30T00:22:43;66800.38;;;0.00;nan
71638;BME280;59485;43.542;-5.676;2023-08-30T00:25:08;66794.28;;;0.00;nan
71638;BME280;59485;43.542;-5.676;2023-08-30T00:27:34;66794.28;;;0.00;nan
71638;BME280;59485;43.542;-5.676;2023-08-30T00:29:59;66792.75;;;0.00;nan
71638;BME280;59485;43.542;-5.676;2023-08-30T00:32:25;66791.22;;;0.00;nan
71638;BME280;59485;43.542;-5.676;2023-08-30T00:34:51;66808.00;;;0.00;nan
71638;BME280;59485;43.542;-5.676;2023-08-30T00:37:19;66785.13;;;0.00;nan
71638;BME280;59485;43.542;-5.676;2023-08-30T00:39:44;66782.06;;;0.00;nan
71638;BME280;59485;43.542;-5.676;2023-08-30T00:42:10;66782.06;;;0.00;nan
71638;BME280;59485;43.542;-5.676;2023-08-30T00:44:35;66782.06;;;0.00;nan
71638;BME280;59485;43.542;-5.676;2023-08-30T00:47:02;66772.91;;;0.00;nan
71638;BME280;59485;43.542;-5.676;2023-08-30T00:52:07;66783.59;;;0.00;nan
71638;BME280;59485;43.542;-5.676;2023-08-30T00:54:34;66809.53;;;0.00;nan
71638;BME280;59485;43.542;-5.676;2023-08-30T00:57:00;66798.84;;;0.00;nan
71638;BME280;59485;43.542;-5.676;2023-08-30T00:59:27;66769.84;;;0.00;nan
71638;BME280;59485;43.542;-5.676;2023-08-30T01:01:52;66791.22;;;0.00;nan
71638;BME280;59485;43.542;-5.676;2023-08-30T01:04:19;66782.06;;;0.00;nan
71638;BME280;59485;43.542;-5.676;2023-08-30T01:06:44;66771.38;;;0.00;nan
71638;BME280;59485;43.542;-5.676;2023-08-30T01:09:10;66815.63;;;0.00;nan
71638;BME280;59485;43.542;-5.676;2023-08-30T01:12:04;66777.50;;;0.00;nan
71638;BME280;59485;43.542;-5.676;2023-08-30T01:14:58;66763.75;;;0.00;nan
71638;BME280;59485;43.542;-5.676;2023-08-30T01:17:27;66780.53;;;0.00;nan
71638;BME280;59485;43.542;-5.676;2023-08-30T01:20:01;66751.53;;;0.00;nan
71638;BME280;59485;43.542;-5.676;2023-08-30T01:22:57;66731.72;;;0.00;nan
71638;BME280;59485;43.542;-5.676;2023-08-30T01:28:24;66730.19;;;0.00;nan
71638;BME280;59485;43.542;-5.676;2023-08-30T01:30:52;66728.66;;;0.00;nan
71638;BME280;59485;43.542;-5.676;2023-08-30T01:33:23;66754.59;;;0.00;nan
71638;BME280;59485;43.542;-5.676;2023-08-30T01:35:49;66763.75;;;0.00;nan
71638;BME280;59485;43.542;-5.676;2023-08-30T01:38:15;66742.41;;;0.00;nan
71638;BME280;59485;43.542;-5.676;2023-08-30T01:40:43;66751.53;;;0.00;nan
71638;BME280;59485;43.542;-5.676;2023-08-30T01:43:10;66791.22;;;0.00;nan
71638;BME280;59485;43.542;-5.676;2023-08-30T01:45:40;66777.50;;;0.00;nan
71638;BME280;59485;43.542;-5.676;2023-08-30T01:48:13;66757.66;;;0.00;nan
71638;BME280;59485;43.542;-5.676;2023-08-30T01:50:43;66751.53;;;0.00;nan
71638;BME280;59485;43.542;-5.676;2023-08-30T01:53:11;66772.91;;;0.00;nan
71638;BME280;59485;43.542;-5.676;2023-08-30T01:55:37;66756.13;;;0.00;nan
71638;BME280;59485;43.542;-5.676;2023-08-30T01:58:05;66762.22;;;0.00;nan
71638;BME280;59485;43.542;-5.676;2023-08-30T02:00:30;66786.66;;;0.00;nan
71638;BME280;59485;43.542;-5.676;2023-08-30T02:02:57;66783.59;;;0.00;nan
71638;BME280;59485;43.542;-5.676;2023-08-30T02:05:22;66792.75;;;0.00;nan
71638;BME280;59485;43.542;-5.676;2023-08-30T02:07:53;66777.50;;;0.00;nan
71638;BME280;59485;43.542;-5.676;2023-08-30T02:10:25;66791.22;;;0.00;nan
71638;BME280;59485;43.542;-5.676;2023-08-30T02:12:54;66788.16;;;0.00;nan
71638;BME280;59485;43.542;-5.676;2023-08-30T02:15:21;66801.91;;;0.00;nan
71638;BME280;59485;43.542;-5.676;2023-08-30T02:17:48;66809.53;;;0.00;nan
71638;BME280;59485;43.542;-5.676;2023-08-30T02:20:14;66797.31;;;0.00;nan
71638;BME280;59485;43.542;-5.676;2023-08-30T02:22:40;66789.69;;;0.00;nan
71638;BME280;59485;43.542;-5.676;2023-08-30T02:25:05;66754.59;;;0.00;nan
71638;BME280;59485;43.542;-5.676;2023-08-30T02:27:32;66733.25;;;0.00;nan
71638;BME280;59485;43.542;-5.676;2023-08-30T02:29:58;66759.19;;;0.00;nan
71638;BME280;59485;43.542;-5.676;2023-08-30T02:32:24;66763.75;;;0.00;nan
71638;BME280;59485;43.542;-5.676;2023-08-30T02:34:51;66772.91;;;0.00;nan
71638;BME280;59485;43.542;-5.676;2023-08-30T02:37:17;66766.81;;;0.00;nan
71638;BME280;59485;43.542;-5.676;2023-08-30T02:39:42;66766.81;;;0.00;nan
71638;BME280;59485;43.542;-5.676;2023-08-30T02:42:08;66760.69;;;0.00;nan
71638;BME280;59485;43.542;-5.676;2023-08-30T02:44:36;66769.84;;;0.00;nan
71638;BME280;59485;43.542;-5.676;2023-08-30T02:47:01;66779.00;;;0.00;nan
71638;BME280;59485;43.542;-5.676;2023-08-30T02:49:27;66763.75;;;0.00;nan
71638;BME280;59485;43.542;-5.676;2023-08-30T02:51:53;66772.91;;;0.00;nan
71638;BME280;59485;43.542;-5.676;2023-08-30T02:54:18;66766.81;;;0.00;nan
71638;BME280;59485;43.542;-5.676;2023-08-30T02:56:48;66751.53;;;0.00;nan
71638;BME280;59485;43.542;-5.676;2023-08-30T02:59:14;66757.66;;;0.00;nan
71638;BME280;59485;43.542;-5.676;2023-08-30T03:01:39;66774.44;;;0.00;nan
71638;BME280;59485;43.542;-5.676;2023-08-30T03:04:05;66777.50;;;0.00;nan
71638;BME280;59485;43.542;-5.676;2023-08-30T03:06:35;66779.00;;;0.00;nan
71638;BME280;59485;43.542;-5.676;2023-08-30T03:09:01;66792.75;;;0.00;nan
71638;BME280;59485;43.542;-5.676;2023-08-30T03:11:26;66808.00;;;0.00;nan
71638;BME280;59485;43.542;-5.676;2023-08-30T03:13:55;66812.59;;;0.00;nan
71638;BME280;59485;43.542;-5.676;2023-08-30T03:16:21;66795.81;;;0.00;nan
71638;BME280;59485;43.542;-5.676;2023-08-30T03:18:47;66801.91;;;0.00;nan
71638;BME280;59485;43.542;-5.676;2023-08-30T03:21:13;66835.47;;;0.00;nan
71638;BME280;59485;43.542;-5.676;2023-08-30T03:23:41;66806.47;;;0.00;nan
71638;BME280;59485;43.542;-5.676;2023-08-30T03:26:16;66774.44;;;0.00;nan
71638;BME280;59485;43.542;-5.676;2023-08-30T03:28:43;66783.59;;;0.00;nan
71638;BME280;59485;43.542;-5.676;2023-08-30T03:31:13;66803.44;;;0.00;nan
71638;BME280;59485;43.542;-5.676;2023-08-30T03:33:39;66811.06;;;0.00;nan
71638;BME280;59485;43.542;-5.676;2023-08-30T03:36:10;66803.44;;;0.00;nan
71638;BME280;59485;43.542;-5.676;2023-08-30T03:38:36;66815.63;;;0.00;nan
71638;BME280;59485;43.542;-5.676;2023-08-30T03:41:02;66812.59;;;0.00;nan
71638;BME280;59485;43.542;-5.676;2023-08-30T03:43:29;66826.31;;;0.00;nan
71638;BME280;59485;43.542;-5.676;2023-08-30T03:45:55;66843.09;;;0.00;nan
71638;BME280;59485;43.542;-5.676;2023-08-30T03:48:20;66849.19;;;0.00;nan
71638;BME280;59485;43.542;-5.676;2023-08-30T03:50:46;66861.41;;;0.00;nan
71638;BME280;59485;43.542;-5.676;2023-08-30T03:53:11;66859.88;;;0.00;nan
71638;BME280;59485;43.542;-5.676;2023-08-30T03:55:37;66846.16;;;0.00;nan
71638;BME280;59485;43.542;-5.676;2023-08-30T03:58:02;66837.00;;;0.00;nan
71638;BME280;59485;43.542;-5.676;2023-08-30T04:00:28;66823.25;;;0.00;nan
71638;BME280;59485;43.542;-5.676;2023-08-30T04:02:54;66835.47;;;0.00;nan
71638;BME280;59485;43.542;-5.676;2023-08-30T04:05:19;66833.94;;;0.00;nan
71638;BME280;59485;43.542;-5.676;2023-08-30T04:07:45;66837.00;;;0.00;nan
71638;BME280;59485;43.542;-5.676;2023-08-30T04:10:10;66843.09;;;0.00;nan
71638;BME280;59485;43.542;-5.676;2023-08-30T04:12:36;66846.16;;;0.00;nan
71638;BME280;59485;43.542;-5.676;2023-08-30T04:15:01;66844.63;;;0.00;nan
71638;BME280;59485;43.542;-5.676;2023-08-30T04:17:27;66846.16;;;0.00;nan
71638;BME280;59485;43.542;-5.676;2023-08-30T04:19:53;66867.50;;;0.00;nan
71638;BME280;59485;43.542;-5.676;2023-08-30T04:22:19;66885.81;;;0.00;nan
71638;BME280;59485;43.542;-5.676;2023-08-30T04:24:45;66858.34;;;0.00;nan
71638;BME280;59485;43.542;-5.676;2023-08-30T04:27:11;66852.25;;;0.00;nan
71638;BME280;59485;43.542;-5.676;2023-08-30T04:29:36;66850.72;;;0.00;nan
71638;BME280;59485;43.542;-5.676;2023-08-30T04:32:02;66852.25;;;0.00;nan
71638;BME280;59485;43.542;-5.676;2023-08-30T04:34:27;66852.25;;;0.00;nan
71638;BME280;59485;43.542;-5.676;2023-08-30T04:36:54;66869.03;;;0.00;nan
71638;BME280;59485;43.542;-5.676;2023-08-30T04:39:20;66844.63;;;0.00;nan
71638;BME280;59485;43.542;-5.676;2023-08-30T04:41:45;66850.72;;;0.00;nan
71638;BME280;59485;43.542;-5.676;2023-08-30T04:44:11;66859.88;;;0.00;nan
71638;BME280;59485;43.542;-5.676;2023-08-30T04:46:36;66859.88;;;0.00;nan
71638;BME280;59485;43.542;-5.676;2023-08-30T04:49:02;66866.00;;;0.00;nan
71638;BME280;59485;43.542;-5.676;2023-08-30T04:51:27;66869.03;;;0.00;nan
71638;BME280;59485;43.542;-5.676;2023-08-30T04:53:53;66858.34;;;0.00;nan
71638;BME280;59485;43.542;-5.676;2023-08-30T04:56:19;66870.56;;;0.00;nan
71638;BME280;59485;43.542;-5.676;2023-08-30T04:58:44;66870.56;;;0.00;nan
71638;BME280;59485;43.542;-5.676;2023-08-30T05:01:10;66867.50;;;0.00;nan
71638;BME280;59485;43.542;-5.676;2023-08-30T05:03:39;66881.25;;;0.00;nan
71638;BME280;59485;43.542;-5.676;2023-08-30T05:06:04;66872.09;;;0.00;nan
71638;BME280;59485;43.542;-5.676;2023-08-30T05:08:30;66858.34;;;0.00;nan
71638;BME280;59485;43.542;-5.676;2023-08-30T05:10:55;66873.63;;;0.00;nan
71638;BME280;59485;43.542;-5.676;2023-08-30T05:13:21;66872.09;;;0.00;nan
71638;BME280;59485;43.542;-5.676;2023-08-30T05:15:47;66866.00;;;0.00;nan
71638;BME280;59485;43.542;-5.676;2023-08-30T05:18:12;66862.94;;;0.00;nan
71638;BME280;59485;43.542;-5.676;2023-08-30T05:20:38;66870.56;;;0.00;nan
71638;BME280;59485;43.542;-5.676;2023-08-30T05:23:04;66873.63;;;0.00;nan
71638;BME280;59485;43.542;-5.676;2023-08-30T05:25:29;66873.63;;;0.00;nan
71638;BME280;59485;43.542;-5.676;2023-08-30T05:27:55;66876.66;;;0.00;nan
71638;BME280;59485;43.542;-5.676;2023-08-30T05:30:20;66882.78;;;0.00;nan
71638;BME280;59485;43.542;-5.676;2023-08-30T05:32:46;66876.66;;;0.00;nan
71638;BME280;59485;43.542;-5.676;2023-08-30T05:35:11;66870.56;;;0.00;nan
71638;BME280;59485;43.542;-5.676;2023-08-30T05:37:37;66881.25;;;0.00;nan
71638;BME280;59485;43.542;-5.676;2023-08-30T05:40:03;66876.66;;;0.00;nan
71638;BME280;59485;43.542;-5.676;2023-08-30T05:42:29;66861.41;;;0.00;nan
71638;BME280;59485;43.542;-5.676;2023-08-30T05:44:54;66878.19;;;0.00;nan
71638;BME280;59485;43.542;-5.676;2023-08-30T05:47:21;66862.94;;;0.00;nan
71638;BME280;59485;43.542;-5.676;2023-08-30T05:49:47;66864.47;;;0.00;nan
71638;BME280;59485;43.542;-5.676;2023-08-30T05:52:15;66864.47;;;0.00;nan
71638;BME280;59485;43.542;-5.676;2023-08-30T05:54:43;66858.34;;;0.00;nan
71638;BME280;59485;43.542;-5.676;2023-08-30T05:57:10;66858.34;;;0.00;nan
71638;BME280;59485;43.542;-5.676;2023-08-30T05:59:35;66855.31;;;0.00;nan
71638;BME280;59485;43.542;-5.676;2023-08-30T06:02:01;66869.03;;;0.00;nan
71638;BME280;59485;43.542;-5.676;2023-08-30T06:04:27;66879.72;;;0.00;nan
71638;BME280;59485;43.542;-5.676;2023-08-30T06:06:52;66888.88;;;0.00;nan
71638;BME280;59485;43.542;-5.676;2023-08-30T06:09:18;66885.81;;;0.00;nan
71638;BME280;59485;43.542;-5.676;2023-08-30T06:11:44;66885.81;;;0.00;nan
71638;BME280;59485;43.542;-5.676;2023-08-30T06:14:09;66887.34;;;0.00;nan
71638;BME280;59485;43.542;-5.676;2023-08-30T06:16:35;66884.31;;;0.00;nan
71638;BME280;59485;43.542;-5.676;2023-08-30T06:19:03;66870.56;;;0.00;nan
71638;BME280;59485;43.542;-5.676;2023-08-30T06:21:29;66894.97;;;0.00;nan
71638;BME280;59485;43.542;-5.676;2023-08-30T06:23:54;66899.56;;;0.00;nan
71638;BME280;59485;43.542;-5.676;2023-08-30T06:26:20;66898.03;;;0.00;nan
71638;BME280;59485;43.542;-5.676;2023-08-30T06:28:45;66894.97;;;0.00;nan
71638;BME280;59485;43.542;-5.676;2023-08-30T06:31:11;66890.41;;;0.00;nan
71638;BME280;59485;43.542;-5.676;2023-08-30T06:33:36;66891.94;;;0.00;nan
71638;BME280;59485;43.542;-5.676;2023-08-30T06:36:04;66904.13;;;0.00;nan
71638;BME280;59485;43.542;-5.676;2023-08-30T06:38:30;66893.47;;;0.00;nan
71638;BME280;59485;43.542;-5.676;2023-08-30T06:40:58;66898.03;;;0.00;nan
71638;BME280;59485;43.542;-5.676;2023-08-30T06:43:23;66890.41;;;0.00;nan
71638;BME280;59485;43.542;-5.676;2023-08-30T06:45:49;66896.50;;;0.00;nan
71638;BME280;59485;43.542;-5.676;2023-08-30T06:48:14;66894.97;;;0.00;nan
71638;BME280;59485;43.542;-5.676;2023-08-30T06:50:40;66891.94;;;0.00;nan
71638;BME280;59485;43.542;-5.676;2023-08-30T06:53:07;66882.78;;;0.00;nan
71638;BME280;59485;43.542;-5.676;2023-08-30T06:55:34;66882.78;;;0.00;nan
71638;BME280;59485;43.542;-5.676;2023-08-30T06:58:02;66875.16;;;0.00;nan
71638;BME280;59485;43.542;-5.676;2023-08-30T07:00:28;66872.09;;;0.00;nan
71638;BME280;59485;43.542;-5.676;2023-08-30T07:02:54;66875.16;;;0.00;nan
71638;BME280;59485;43.542;-5.676;2023-08-30T07:05:19;66867.50;;;0.00;nan
71638;BME280;59485;43.542;-5.676;2023-08-30T07:07:45;66867.50;;;0.00;nan
71638;BME280;59485;43.542;-5.676;2023-08-30T07:10:11;66867.50;;;0.00;nan
71638;BME280;59485;43.542;-5.676;2023-08-30T07:12:36;66862.94;;;0.00;nan
71638;BME280;59485;43.542;-5.676;2023-08-30T07:15:04;66861.41;;;0.00;nan
71638;BME280;59485;43.542;-5.676;2023-08-30T07:17:30;66864.47;;;0.00;nan
71638;BME280;59485;43.542;-5.676;2023-08-30T07:19:55;66847.69;;;0.00;nan
71638;BME280;59485;43.542;-5.676;2023-08-30T07:22:21;66846.16;;;0.00;nan
71638;BME280;59485;43.542;-5.676;2023-08-30T07:24:46;66843.09;;;0.00;nan
71638;BME280;59485;43.542;-5.676;2023-08-30T07:27:12;66833.94;;;0.00;nan
71638;BME280;59485;43.542;-5.676;2023-08-30T07:29:38;66827.84;;;0.00;nan
71638;BME280;59485;43.542;-5.676;2023-08-30T07:32:07;66824.78;;;0.00;nan
71638;BME280;59485;43.542;-5.676;2023-08-30T07:34:33;66823.25;;;0.00;nan
71638;BME280;59485;43.542;-5.676;2023-08-30T07:36:58;66835.47;;;0.00;nan
71638;BME280;59485;43.542;-5.676;2023-08-30T07:39:24;66837.00;;;0.00;nan
71638;BME280;59485;43.542;-5.676;2023-08-30T07:41:49;66824.78;;;0.00;nan
71638;BME280;59485;43.542;-5.676;2023-08-30T07:44:15;66838.53;;;0.00;nan
71638;BME280;59485;43.542;-5.676;2023-08-30T07:46:41;66849.19;;;0.00;nan
71638;BME280;59485;43.542;-5.676;2023-08-30T07:49:07;66864.47;;;0.00;nan
71638;BME280;59485;43.542;-5.676;2023-08-30T07:51:36;66861.41;;;0.00;nan
71638;BME280;59485;43.542;-5.676;2023-08-30T07:54:01;66858.34;;;0.00;nan
71638;BME280;59485;43.542;-5.676;2023-08-30T07:58:56;66844.63;;;0.00;nan
71638;BME280;59485;43.542;-5.676;2023-08-30T08:01:22;66847.69;;;0.00;nan
71638;BME280;59485;43.542;-5.676;2023-08-30T08:03:47;66830.91;;;0.00;nan
71638;BME280;59485;43.542;-5.676;2023-08-30T08:06:13;66852.25;;;0.00;nan
71638;BME280;59485;43.542;-5.676;2023-08-30T08:08:38;66843.09;;;0.00;nan
71638;BME280;59485;43.542;-5.676;2023-08-30T08:11:04;66827.84;;;0.00;nan
71638;BME280;59485;43.542;-5.676;2023-08-30T08:13:29;66821.75;;;0.00;nan
71638;BME280;59485;43.542;-5.676;2023-08-30T08:15:56;66818.69;;;0.00;nan
71638;BME280;59485;43.542;-5.676;2023-08-30T08:18:22;66814.09;;;0.00;nan
71638;BME280;59485;43.542;-5.676;2023-08-30T08:20:48;66833.94;;;0.00;nan
71638;BME280;59485;43.542;-5.676;2023-08-30T08:23:13;66821.75;;;0.00;nan
71638;BME280;59485;43.542;-5.676;2023-08-30T08:25:39;66814.09;;;0.00;nan
71638;BME280;59485;43.542;-5.676;2023-08-30T08:28:04;66811.06;;;0.00;nan
71638;BME280;59485;43.542;-5.676;2023-08-30T08:30:30;66808.00;;;0.00;nan
71638;BME280;59485;43.542;-5.676;2023-08-30T08:32:57;66800.38;;;0.00;nan
71638;BME280;59485;43.542;-5.676;2023-08-30T08:35:24;66800.38;;;0.00;nan
71638;BME280;59485;43.542;-5.676;2023-08-30T08:37:49;66785.13;;;0.00;nan
71638;BME280;59485;43.542;-5.676;2023-08-30T08:40:15;66801.91;;;0.00;nan
71638;BME280;59485;43.542;-5.676;2023-08-30T08:42:42;66791.22;;;0.00;nan
71638;BME280;59485;43.542;-5.676;2023-08-30T08:45:09;66797.31;;;0.00;nan
71638;BME280;59485;43.542;-5.676;2023-08-30T08:47:37;66786.66;;;0.00;nan
71638;BME280;59485;43.542;-5.676;2023-08-30T08:50:03;66785.13;;;0.00;nan
71638;BME280;59485;43.542;-5.676;2023-08-30T08:52:29;66798.84;;;0.00;nan
71638;BME280;59485;43.542;-5.676;2023-08-30T08:54:56;66794.28;;;0.00;nan
71638;BME280;59485;43.542;-5.676;2023-08-30T08:57:23;66785.13;;;0.00;nan
71638;BME280;59485;43.542;-5.676;2023-08-30T08:59:49;66792.75;;;0.00;nan
71638;BME280;59485;43.542;-5.676;2023-08-30T09:02:15;66780.53;;;0.00;nan
71638;BME280;59485;43.542;-5.676;2023-08-30T09:04:41;66789.69;;;0.00;nan
71638;BME280;59485;43.542;-5.676;2023-08-30T09:07:07;66768.34;;;0.00;nan
71638;BME280;59485;43.542;-5.676;2023-08-30T09:12:00;66769.84;;;0.00;nan
71638;BME280;59485;43.542;-5.676;2023-08-30T09:14:25;66782.06;;;0.00;nan
71638;BME280;59485;43.542;-5.676;2023-08-30T09:17:09;66765.28;;;0.00;nan
71638;BME280;59485;43.542;-5.676;2023-08-30T09:19:34;66757.66;;;0.00;nan
71638;BME280;59485;43.542;-5.676;2023-08-30T09:22:00;66762.22;;;0.00;nan
71638;BME280;59485;43.542;-5.676;2023-08-30T09:24:41;66745.44;;;0.00;nan
71638;BME280;59485;43.542;-5.676;2023-08-30T09:27:07;66728.66;;;0.00;nan
71638;BME280;59485;43.542;-5.676;2023-08-30T09:29:32;66699.66;;;0.00;nan
71638;BME280;59485;43.542;-5.676;2023-08-30T09:31:58;66711.88;;;0.00;nan
71638;BME280;59485;43.542;-5.676;2023-08-30T09:34:26;66714.94;;;0.00;nan
71638;BME280;59485;43.542;-5.676;2023-08-30T09:36:54;66708.81;;;0.00;nan
71638;BME280;59485;43.542;-5.676;2023-08-30T09:39:20;66721.03;;;0.00;nan
71638;BME280;59485;43.542;-5.676;2023-08-30T09:41:48;66711.88;;;0.00;nan
71638;BME280;59485;43.542;-5.676;2023-08-30T09:46:55;66679.84;;;0.00;nan
71638;BME280;59485;43.542;-5.676;2023-08-30T09:49:26;66695.09;;;0.00;nan
71638;BME280;59485;43.542;-5.676;2023-08-30T09:51:53;66690.50;;;0.00;nan
71638;BME280;59485;43.542;-5.676;2023-08-30T09:54:22;66693.56;;;0.00;nan
71638;BME280;59485;43.542;-5.676;2023-08-30T09:56:51;66707.28;;;0.00;nan
71638;BME280;59485;43.542;-5.676;2023-08-30T09:59:21;66714.94;;;0.00;nan
71638;BME280;59485;43.542;-5.676;2023-08-30T10:01:47;66710.34;;;0.00;nan
71638;BME280;59485;43.542;-5.676;2023-08-30T10:04:31;66704.25;;;0.00;nan
71638;BME280;59485;43.542;-5.676;2023-08-30T10:06:57;66687.47;;;0.00;nan
71638;BME280;59485;43.542;-5.676;2023-08-30T10:09:24;66675.25;;;0.00;nan
71638;BME280;59485;43.542;-5.676;2023-08-30T10:11:59;66678.31;;;0.00;nan
71638;BME280;59485;43.542;-5.676;2023-08-30T10:14:26;66670.69;;;0.00;nan
71638;BME280;59485;43.542;-5.676;2023-08-30T10:17:03;66685.94;;;0.00;nan
71638;BME280;59485;43.542;-5.676;2023-08-30T10:19:36;66685.94;;;0.00;nan
71638;BME280;59485;43.542;-5.676;2023-08-30T10:22:03;66666.09;;;0.00;nan
71638;BME280;59485;43.542;-5.676;2023-08-30T10:27:10;66664.56;;;0.00;nan
71638;BME280;59485;43.542;-5.676;2023-08-30T10:32:19;66658.47;;;0.00;nan
71638;BME280;59485;43.542;-5.676;2023-08-30T10:34:48;66656.94;;;0.00;nan
71638;BME280;59485;43.542;-5.676;2023-08-30T10:37:29;66678.31;;;0.00;nan
71638;BME280;59485;43.542;-5.676;2023-08-30T10:40:01;66695.09;;;0.00;nan
71638;BME280;59485;43.542;-5.676;2023-08-30T10:42:31;66695.09;;;0.00;nan
71638;BME280;59485;43.542;-5.676;2023-08-30T10:47:29;66661.53;;;0.00;nan
71638;BME280;59485;43.542;-5.676;2023-08-30T10:49:56;66658.47;;;0.00;nan
71638;BME280;59485;43.542;-5.676;2023-08-30T10:52:22;66641.69;;;0.00;nan
71638;BME280;59485;43.542;-5.676;2023-08-30T10:54:49;66632.53;;;0.00;nan
71638;BME280;59485;43.542;-5.676;2023-08-30T10:57:18;66623.38;;;0.00;nan
71638;BME280;59485;43.542;-5.676;2023-08-30T11:00:04;66612.69;;;0.00;nan
71638;BME280;59485;43.542;-5.676;2023-08-30T11:02:44;66600.47;;;0.00;nan
71638;BME280;59485;43.542;-5.676;2023-08-30T11:05:21;66609.63;;;0.00;nan
71638;BME280;59485;43.542;-5.676;2023-08-30T11:07:47;66595.91;;;0.00;nan
71638;BME280;59485;43.542;-5.676;2023-08-30T11:10:17;66620.31;;;0.00;nan
71638;BME280;59485;43.542;-5.676;2023-08-30T11:12:47;66602.00;;;0.00;nan
71638;BME280;59485;43.542;-5.676;2023-08-30T11:15:15;66602.00;;;0.00;nan
71638;BME280;59485;43.542;-5.676;2023-08-30T11:17:45;66586.75;;;0.00;nan
71638;BME280;59485;43.542;-5.676;2023-08-30T11:20:21;66600.47;;;0.00;nan
71638;BME280;59485;43.542;-5.676;2023-08-30T11:22:47;66611.16;;;0.00;nan
71638;BME280;59485;43.542;-5.676;2023-08-30T11:25:14;66602.00;;;0.00;nan
71638;BME280;59485;43.542;-5.676;2023-08-30T11:30:09;66589.81;;;0.00;nan
71638;BME280;59485;43.542;-5.676;2023-08-30T11:32:39;66583.69;;;0.00;nan
71638;BME280;59485;43.542;-5.676;2023-08-30T11:35:09;66579.13;;;0.00;nan
71638;BME280;59485;43.542;-5.676;2023-08-30T11:37:36;66582.19;;;0.00;nan
71638;BME280;59485;43.542;-5.676;2023-08-30T11:42:30;66565.38;;;0.00;nan
71638;BME280;59485;43.542;-5.676;2023-08-30T11:44:57;66557.75;;;0.00;nan
71638;BME280;59485;43.542;-5.676;2023-08-30T11:47:24;66566.91;;;0.00;nan
71638;BME280;59485;43.542;-5.676;2023-08-30T11:49:52;66557.75;;;0.00;nan
71638;BME280;59485;43.542;-5.676;2023-08-30T11:52:19;66571.50;;;0.00;nan
71638;BME280;59485;43.542;-5.676;2023-08-30T11:54:49;66583.69;;;0.00;nan
71638;BME280;59485;43.542;-5.676;2023-08-30T11:57:14;66571.50;;;0.00;nan
71638;BME280;59485;43.542;-5.676;2023-08-30T11:59:40;66577.59;;;0.00;nan
71638;BME280;59485;43.542;-5.676;2023-08-30T12:02:09;66568.44;;;0.00;nan
71638;BME280;59485;43.542;-5.676;2023-08-30T12:04:41;66595.91;;;0.00;nan
71638;BME280;59485;43.542;-5.676;2023-08-30T12:07:08;66602.00;;;0.00;nan
71638;BME280;59485;43.542;-5.676;2023-08-30T12:09:36;66566.91;;;0.00;nan
71638;BME280;59485;43.542;-5.676;2023-08-30T12:12:06;66577.59;;;0.00;nan
71638;BME280;59485;43.542;-5.676;2023-08-30T12:14:35;66571.50;;;0.00;nan
71638;BME280;59485;43.542;-5.676;2023-08-30T12:17:01;66589.81;;;0.00;nan
71638;BME280;59485;43.542;-5.676;2023-08-30T12:21:54;66582.19;;;0.00;nan
71638;BME280;59485;43.542;-5.676;2023-08-30T12:24:19;66597.44;;;0.00;nan
71638;BME280;59485;43.542;-5.676;2023-08-30T12:26:45;66611.16;;;0.00;nan
71638;BME280;59485;43.542;-5.676;2023-08-30T12:29:10;66626.44;;;0.00;nan
71638;BME280;59485;43.542;-5.676;2023-08-30T12:31:39;66592.84;;;0.00;nan
71638;BME280;59485;43.542;-5.676;2023-08-30T12:34:05;66582.19;;;0.00;nan
71638;BME280;59485;43.542;-5.676;2023-08-30T12:36:30;66577.59;;;0.00;nan
71638;BME280;59485;43.542;-5.676;2023-08-30T12:38:59;66577.59;;;0.00;nan
71638;BME280;59485;43.542;-5.676;2023-08-30T12:41:24;66574.53;;;0.00;nan
71638;BME280;59485;43.542;-5.676;2023-08-30T12:43:50;66556.22;;;0.00;nan
71638;BME280;59485;43.542;-5.676;2023-08-30T12:46:16;66562.34;;;0.00;nan
71638;BME280;59485;43.542;-5.676;2023-08-30T12:48:42;66580.66;;;0.00;nan
71638;BME280;59485;43.542;-5.676;2023-08-30T12:51:08;66576.06;;;0.00;nan
71638;BME280;59485;43.542;-5.676;2023-08-30T12:53:33;66562.34;;;0.00;nan
71638;BME280;59485;43.542;-5.676;2023-08-30T12:55:59;66556.22;;;0.00;nan
71638;BME280;59485;43.542;-5.676;2023-08-30T12:58:24;66562.34;;;0.00;nan
71638;BME280;59485;43.542;-5.676;2023-08-30T13:00:50;66565.38;;;0.00;nan
71638;BME280;59485;43.542;-5.676;2023-08-30T13:03:16;66576.06;;;0.00;nan
71638;BME280;59485;43.542;-5.676;2023-08-30T13:05:41;66553.19;;;0.00;nan
71638;BME280;59485;43.542;-5.676;2023-08-30T13:08:07;66547.06;;;0.00;nan
71638;BME280;59485;43.542;-5.676;2023-08-30T13:10:35;66550.13;;;0.00;nan
71638;BME280;59485;43.542;-5.676;2023-08-30T13:13:00;66537.91;;;0.00;nan
71638;BME280;59485;43.542;-5.676;2023-08-30T13:15:26;66527.25;;;0.00;nan
71638;BME280;59485;43.542;-5.676;2023-08-30T13:17:55;66527.25;;;0.00;nan
71638;BME280;59485;43.542;-5.676;2023-08-30T13:20:21;66545.56;;;0.00;nan
71638;BME280;59485;43.542;-5.676;2023-08-30T13:22:46;66565.38;;;0.00;nan
71638;BME280;59485;43.542;-5.676;2023-08-30T13:25:12;66559.28;;;0.00;nan
71638;BME280;59485;43.542;-5.676;2023-08-30T13:27:38;66569.97;;;0.00;nan
71638;BME280;59485;43.542;-5.676;2023-08-30T13:30:04;66559.28;;;0.00;nan
71638;BME280;59485;43.542;-5.676;2023-08-30T13:32:29;66556.22;;;0.00;nan
71638;BME280;59485;43.542;-5.676;2023-08-30T13:34:55;66563.88;;;0.00;nan
71638;BME280;59485;43.542;-5.676;2023-08-30T13:37:21;66542.50;;;0.00;nan
71638;BME280;59485;43.542;-5.676;2023-08-30T13:39:48;66550.13;;;0.00;nan
71638;BME280;59485;43.542;-5.676;2023-08-30T13:42:14;66563.88;;;0.00;nan
71638;BME280;59485;43.542;-5.676;2023-08-30T13:44:40;66563.88;;;0.00;nan
71638;BME280;59485;43.542;-5.676;2023-08-30T13:47:07;66542.50;;;0.00;nan
71638;BME280;59485;43.542;-5.676;2023-08-30T13:49:33;66547.06;;;0.00;nan